Time;durP1;ratioP1;P1;durP2;ratioP2;P2;SDS_P1;SDS_P2;PMS_P1;PMS_P2;Temp;Humidity;BMP_temperature;BMP_pressure;BME280_temperature;BME280_humidity;BME280_pressure;Samples;Min_cycle;Max_cycle;Signal;HPM_P1;HPM_P2
2023/07/02 00:00:24;;;;;;;2.88;1.20;;;24.20;65.20;;;;;;5109514;27;20197;-82
2023/07/02 00:02:52;;;;;;;3.15;1.55;;;24.10;66.00;;;;;;5101582;27;20189;-82
2023/07/02 00:05:21;;;;;;;0.80;0.80;;;24.10;65.90;;;;;;5103538;27;20246;-84
2023/07/02 00:07:50;;;;;;;0.50;0.50;;;24.00;65.80;;;;;;5101636;27;20228;-82
2023/07/02 00:10:20;;;;;;;1.05;0.98;;;24.00;66.10;;;;;;5105832;27;20190;-84
2023/07/02 00:12:49;;;;;;;0.47;0.47;;;24.00;66.20;;;;;;5105841;27;20203;-83
2023/07/02 00:15:17;;;;;;;1.67;1.05;;;24.00;66.30;;;;;;5100499;27;20197;-83
2023/07/02 00:17:46;;;;;;;2.05;0.93;;;23.90;73.50;;;;;;5097942;27;20197;-81
2023/07/02 00:20:16;;;;;;;1.27;1.00;;;23.80;73.30;;;;;;5108832;27;20202;-82
2023/07/02 00:22:46;;;;;;;3.50;1.73;;;23.80;71.60;;;;;;5099532;27;20566;-84
2023/07/02 00:25:16;;;;;;;2.60;2.05;;;23.70;72.50;;;;;;5096769;27;20222;-84
2023/07/02 00:27:44;;;;;;;4.35;1.30;;;23.70;75.60;;;;;;5100028;27;20231;-83
2023/07/02 00:30:13;;;;;;;0.88;0.77;;;23.60;74.00;;;;;;5102283;27;20241;-83
2023/07/02 00:32:42;;;;;;;1.60;1.40;;;23.60;76.50;;;;;;5099495;27;20197;-82
2023/07/02 00:35:10;;;;;;;1.75;1.65;;;23.50;75.90;;;;;;5101470;27;20189;-84
2023/07/02 00:37:38;;;;;;;0.75;0.73;;;23.50;75.20;;;;;;5104882;27;20311;-83
2023/07/02 00:40:08;;;;;;;2.33;1.63;;;23.40;78.20;;;;;;5096920;27;20193;-82
2023/07/02 00:42:38;;;;;;;0.63;0.63;;;23.40;77.80;;;;;;5092480;28;20193;-83
2023/07/02 00:45:07;;;;;;;1.17;1.05;;;23.30;78.30;;;;;;5091750;27;20194;-83
2023/07/02 00:47:36;;;;;;;0.70;0.70;;;23.30;78.10;;;;;;5102003;27;20666;-83
2023/07/02 00:50:09;;;;;;;0.60;0.60;;;23.30;77.30;;;;;;5095324;27;20197;-84
2023/07/02 00:52:38;;;;;;;0.73;0.73;;;23.30;77.00;;;;;;5099071;27;20407;-83
2023/07/02 00:55:07;;;;;;;2.20;1.95;;;23.30;78.80;;;;;;5103002;27;20194;-83
2023/07/02 00:57:40;;;;;;;0.88;0.88;;;23.30;78.00;;;;;;5100000;27;20212;-84
2023/07/02 01:00:10;;;;;;;0.45;0.45;;;23.30;77.90;;;;;;5102705;27;20189;-83
2023/07/02 01:02:38;;;;;;;1.20;0.90;;;23.30;77.10;;;;;;5106886;27;20198;-82
2023/07/02 01:05:07;;;;;;;1.92;1.00;;;23.30;76.80;;;;;;5112280;27;20192;-82
2023/07/02 01:07:36;;;;;;;0.90;0.70;;;23.30;76.60;;;;;;5095719;28;20225;-82
2023/07/02 01:10:05;;;;;;;1.13;1.02;;;23.30;76.50;;;;;;5108165;27;20197;-83
2023/07/02 01:12:34;;;;;;;0.73;0.70;;;23.30;76.50;;;;;;5100278;27;20196;-83
2023/07/02 01:15:06;;;;;;;2.55;1.25;;;23.30;76.30;;;;;;5103479;27;20185;-81
2023/07/02 01:17:41;;;;;;;0.60;0.60;;;23.30;77.60;;;;;;5117966;27;20211;-83
2023/07/02 01:20:13;;;;;;;0.30;0.30;;;23.30;77.10;;;;;;5100991;27;20192;-83
2023/07/02 01:22:42;;;;;;;2.75;0.77;;;23.30;76.90;;;;;;5100300;27;20201;-83
2023/07/02 01:25:11;;;;;;;0.55;0.50;;;23.20;77.90;;;;;;5094526;27;20216;-82
2023/07/02 01:27:39;;;;;;;0.68;0.65;;;23.20;78.60;;;;;;5093121;28;20542;-83
2023/07/02 01:30:10;;;;;;;3.97;1.25;;;23.20;78.50;;;;;;5103153;27;20201;-84
2023/07/02 01:32:39;;;;;;;0.50;0.50;;;23.20;79.20;;;;;;5093201;27;20855;-83
2023/07/02 01:35:10;;;;;;;0.80;0.73;;;23.10;80.10;;;;;;5101229;27;20200;-83
2023/07/02 01:37:39;;;;;;;1.58;1.48;;;23.10;79.70;;;;;;5094962;28;20205;-83
2023/07/02 01:40:09;;;;;;;1.55;0.70;;;23.10;79.70;;;;;;5094024;28;20193;-81
2023/07/02 01:42:38;;;;;;;1.45;0.90;;;23.10;79.70;;;;;;5105243;27;20579;-83
2023/07/02 01:45:08;;;;;;;0.95;0.95;;;23.10;79.10;;;;;;5100519;28;20205;-83
2023/07/02 01:47:36;;;;;;;0.93;0.93;;;23.10;78.70;;;;;;5090120;28;20197;-83
2023/07/02 01:50:06;;;;;;;1.05;0.98;;;23.10;79.80;;;;;;5098411;27;20598;-83
2023/07/02 01:52:36;;;;;;;0.85;0.50;;;23.00;81.10;;;;;;5094758;27;20271;-83
2023/07/02 01:55:05;;;;;;;0.90;0.40;;;23.00;81.30;;;;;;5098828;28;20202;-85
2023/07/02 01:57:34;;;;;;;0.70;0.70;;;23.00;81.50;;;;;;5094631;28;20229;-82
2023/07/02 02:00:03;;;;;;;0.90;0.50;;;23.00;81.40;;;;;;5111288;28;20212;-81
2023/07/02 02:02:31;;;;;;;1.30;0.85;;;23.00;82.20;;;;;;5101235;28;20234;-82
2023/07/02 02:05:00;;;;;;;0.25;0.25;;;23.00;81.50;;;;;;5104584;28;20275;-82
2023/07/02 02:07:28;;;;;;;1.17;0.73;;;23.00;81.90;;;;;;5097162;28;22023;-83
2023/07/02 02:09:58;;;;;;;0.63;0.50;;;23.00;82.20;;;;;;5091520;28;20193;-82
2023/07/02 02:12:28;;;;;;;0.85;0.85;;;23.00;83.70;;;;;;5094996;28;20193;-82
2023/07/02 02:14:57;;;;;;;3.17;1.40;;;23.00;84.10;;;;;;5100222;28;20194;-83
2023/07/02 02:17:25;;;;;;;1.05;0.82;;;23.00;83.30;;;;;;5092970;28;20706;-82
2023/07/02 02:19:53;;;;;;;0.40;0.40;;;23.00;83.30;;;;;;5102439;28;20239;-84
2023/07/02 02:22:22;;;;;;;0.40;0.40;;;22.90;82.90;;;;;;5101232;28;20188;-82
2023/07/02 02:24:50;;;;;;;1.85;1.30;;;23.00;82.90;;;;;;5091772;28;20251;-82
2023/07/02 02:27:20;;;;;;;0.60;0.60;;;23.00;83.40;;;;;;5099613;28;20201;-82
2023/07/02 02:29:48;;;;;;;1.17;0.95;;;23.00;82.90;;;;;;5097130;27;20194;-83
2023/07/02 02:32:19;;;;;;;0.50;0.50;;;23.00;82.50;;;;;;5096697;28;20661;-81
2023/07/02 02:34:48;;;;;;;3.03;0.50;;;23.00;82.00;;;;;;5093634;28;20194;-83
2023/07/02 02:37:16;;;;;;;0.50;0.40;;;23.00;82.00;;;;;;5093346;28;20229;-83
2023/07/02 02:39:44;;;;;;;0.43;0.30;;;23.00;81.90;;;;;;5091224;28;20193;-82
2023/07/02 02:42:13;;;;;;;0.30;0.30;;;23.10;81.60;;;;;;5105382;27;20186;-82
2023/07/02 02:44:42;;;;;;;1.30;0.82;;;23.10;81.30;;;;;;5112582;27;20650;-83
2023/07/02 02:47:11;;;;;;;0.30;0.30;;;23.10;81.30;;;;;;5092997;27;20665;-83
2023/07/02 02:49:40;;;;;;;1.33;0.82;;;23.10;81.00;;;;;;5097965;27;20193;-82
2023/07/02 02:52:08;;;;;;;1.20;1.10;;;23.20;80.90;;;;;;5100772;27;20197;-83
2023/07/02 02:54:37;;;;;;;1.33;0.50;;;23.20;81.00;;;;;;5095113;27;20212;-83
2023/07/02 02:57:05;;;;;;;0.60;0.60;;;23.20;80.80;;;;;;5098417;28;20634;-84
2023/07/02 02:59:34;;;;;;;1.10;0.82;;;23.20;81.20;;;;;;5100213;27;20204;-83
2023/07/02 03:02:04;;;;;;;0.60;0.60;;;23.20;81.70;;;;;;5106467;27;20202;-84
2023/07/02 03:04:33;;;;;;;2.05;0.80;;;23.20;82.50;;;;;;5092124;27;20222;-83
2023/07/02 03:07:02;;;;;;;0.55;0.50;;;23.20;82.70;;;;;;5107784;27;20220;-82
2023/07/02 03:09:31;;;;;;;1.27;1.13;;;23.10;82.20;;;;;;5091866;28;20275;-81
2023/07/02 03:12:00;;;;;;;1.08;0.95;;;23.20;82.60;;;;;;5100901;27;20237;-84
2023/07/02 03:14:28;;;;;;;0.45;0.45;;;23.20;82.30;;;;;;5105406;27;20198;-84
2023/07/02 03:16:57;;;;;;;0.47;0.47;;;23.20;82.00;;;;;;5099865;27;20204;-82
2023/07/02 03:19:27;;;;;;;1.50;0.90;;;23.20;81.90;;;;;;5109993;27;21020;-83
2023/07/02 03:21:55;;;;;;;0.35;0.35;;;23.20;82.30;;;;;;5096279;27;20189;-82
2023/07/02 03:24:24;;;;;;;2.00;1.10;;;23.20;82.60;;;;;;5103712;28;20200;-83
2023/07/02 03:26:52;;;;;;;0.60;0.60;;;23.20;82.90;;;;;;5094378;28;20193;-84
2023/07/02 03:29:20;;;;;;;2.08;1.23;;;23.20;83.10;;;;;;5100956;27;20196;-83
2023/07/02 03:31:48;;;;;;;3.13;1.35;;;23.20;84.20;;;;;;5099534;27;20188;-83
2023/07/02 03:34:16;;;;;;;1.23;0.73;;;23.20;84.50;;;;;;5110255;27;20197;-82
2023/07/02 03:36:46;;;;;;;0.70;0.70;;;23.30;85.40;;;;;;5107949;27;20265;-82
2023/07/02 03:39:14;;;;;;;0.52;0.52;;;23.20;85.10;;;;;;5106687;27;20221;-82
2023/07/02 03:41:43;;;;;;;0.75;0.50;;;23.30;85.10;;;;;;5102958;27;20201;-82
2023/07/02 03:44:11;;;;;;;0.47;0.47;;;23.30;85.00;;;;;;5094564;27;20190;-85
2023/07/02 03:46:40;;;;;;;0.55;0.55;;;23.30;85.00;;;;;;5095595;27;20688;-82
2023/07/02 03:49:08;;;;;;;0.40;0.40;;;23.30;84.50;;;;;;5104203;28;20199;-82
2023/07/02 03:51:38;;;;;;;5.38;2.25;;;23.40;84.70;;;;;;5096592;27;20193;-84
2023/07/02 03:54:08;;;;;;;0.57;0.57;;;23.40;84.40;;;;;;5110763;27;20189;-82
2023/07/02 03:56:36;;;;;;;2.60;1.10;;;23.30;84.90;;;;;;5103085;27;20197;-83
2023/07/02 03:59:05;;;;;;;1.33;0.80;;;23.40;85.60;;;;;;5096874;27;20309;-84
2023/07/02 04:01:33;;;;;;;0.70;0.70;;;23.40;85.40;;;;;;5099748;27;20204;-84
2023/07/02 04:04:01;;;;;;;0.43;0.43;;;23.40;85.80;;;;;;5112636;27;20189;-82
2023/07/02 04:06:30;;;;;;;1.13;0.70;;;23.50;86.20;;;;;;5096363;27;20614;-83
2023/07/02 04:08:58;;;;;;;1.17;0.60;;;23.50;86.20;;;;;;5108328;27;20200;-83
2023/07/02 04:11:28;;;;;;;0.65;0.65;;;23.50;86.30;;;;;;5102362;27;20197;-83
2023/07/02 04:13:56;;;;;;;1.58;1.33;;;23.50;87.30;;;;;;5098420;27;20197;-82
2023/07/02 04:16:28;;;;;;;1.42;0.65;;;23.50;87.20;;;;;;5112718;27;20198;-81
2023/07/02 04:18:56;;;;;;;0.95;0.52;;;23.50;87.10;;;;;;5109410;27;20282;-82
2023/07/02 04:21:24;;;;;;;0.80;0.80;;;23.50;86.80;;;;;;5098553;28;21766;-83
2023/07/02 04:23:53;;;;;;;1.02;0.80;;;23.50;86.70;;;;;;5100187;27;20197;-83
2023/07/02 04:26:22;;;;;;;1.48;0.95;;;23.60;87.00;;;;;;5102385;28;20201;-82
2023/07/02 04:29:12;;;;;;;2.83;1.17;;;23.60;87.70;;;;;;5103691;27;20249;-83
2023/07/02 04:31:40;;;;;;;2.05;0.60;;;23.60;87.70;;;;;;5095171;27;20201;-83
2023/07/02 04:34:08;;;;;;;1.48;0.95;;;23.60;87.10;;;;;;5091049;27;20585;-82
2023/07/02 04:36:37;;;;;;;4.65;1.35;;;23.60;87.20;;;;;;5111451;27;20189;-83
2023/07/02 04:39:05;;;;;;;1.75;1.02;;;23.60;88.20;;;;;;5101866;27;20304;-83
2023/07/02 04:41:34;;;;;;;0.50;0.50;;;23.60;88.60;;;;;;5102532;27;20247;-82
2023/07/02 04:44:02;;;;;;;0.82;0.75;;;23.60;89.50;;;;;;5093197;28;20205;-82
2023/07/02 04:46:33;;;;;;;0.90;0.90;;;23.70;89.50;;;;;;5102973;27;20202;-82
2023/07/02 04:49:01;;;;;;;2.15;0.90;;;23.70;89.90;;;;;;5095081;27;20194;-82
2023/07/02 04:51:30;;;;;;;1.60;1.15;;;23.60;90.30;;;;;;5091720;28;20224;-82
2023/07/02 04:53:59;;;;;;;0.85;0.85;;;23.70;90.20;;;;;;5102301;28;20197;-84
2023/07/02 04:56:27;;;;;;;0.55;0.52;;;23.70;90.30;;;;;;5101596;27;20204;-84
2023/07/02 04:58:55;;;;;;;0.85;0.82;;;23.70;90.50;;;;;;5099293;27;20213;-83
2023/07/02 05:01:24;;;;;;;1.33;1.15;;;23.70;90.50;;;;;;5099439;27;20228;-83
2023/07/02 05:03:55;;;;;;;4.68;1.52;;;23.70;90.20;;;;;;5091237;28;21090;-84
2023/07/02 05:06:23;;;;;;;2.40;1.50;;;23.70;90.10;;;;;;5103097;27;20228;-83
2023/07/02 05:08:52;;;;;;;1.20;0.98;;;23.80;90.40;;;;;;5092750;27;20197;-83
2023/07/02 05:11:21;;;;;;;3.47;1.83;;;23.80;90.30;;;;;;5101100;27;20363;-81
2023/07/02 05:13:49;;;;;;;0.73;0.47;;;23.80;90.40;;;;;;5101557;27;20197;-84
2023/07/02 05:16:18;;;;;;;1.50;1.40;;;23.80;90.30;;;;;;5100783;27;20556;-82
2023/07/02 05:18:47;;;;;;;0.57;0.57;;;23.80;90.50;;;;;;5105469;27;20228;-85
2023/07/02 05:21:19;;;;;;;1.02;0.93;;;23.90;90.40;;;;;;5097215;27;20192;-84
2023/07/02 05:23:48;;;;;;;2.47;1.23;;;23.90;90.60;;;;;;5091391;28;20194;-82
2023/07/02 05:26:16;;;;;;;0.93;0.90;;;23.90;90.70;;;;;;5093594;27;20251;-82
2023/07/02 05:28:45;;;;;;;0.98;0.80;;;24.00;90.60;;;;;;5093140;27;20193;-81
2023/07/02 05:31:13;;;;;;;1.00;1.00;;;24.00;90.40;;;;;;5097252;28;20646;-82
2023/07/02 05:33:42;;;;;;;2.45;1.38;;;24.10;90.30;;;;;;5094336;27;20197;-82
2023/07/02 05:36:10;;;;;;;3.50;1.95;;;24.10;90.20;;;;;;5094376;27;20190;-82
2023/07/02 05:38:40;;;;;;;0.88;0.80;;;24.10;90.20;;;;;;5100853;27;20232;-82
2023/07/02 05:41:09;;;;;;;1.23;1.17;;;24.20;90.10;;;;;;5104585;27;20197;-82
2023/07/02 05:43:37;;;;;;;2.63;1.25;;;24.30;90.10;;;;;;5102341;27;20194;-84
2023/07/02 05:46:05;;;;;;;1.80;1.05;;;24.30;90.00;;;;;;5098658;28;20193;-86
2023/07/02 05:48:34;;;;;;;0.85;0.77;;;24.40;90.00;;;;;;5093884;28;20264;-82
2023/07/02 05:51:03;;;;;;;1.42;1.33;;;24.50;90.00;;;;;;5091446;28;20868;-85
2023/07/02 05:53:32;;;;;;;1.15;1.08;;;24.50;90.00;;;;;;5106325;27;20192;-84
2023/07/02 05:56:02;;;;;;;2.42;1.02;;;24.60;89.80;;;;;;5098768;27;20184;-84
2023/07/02 05:58:30;;;;;;;1.73;1.45;;;24.70;89.90;;;;;;5100154;28;20562;-83
2023/07/02 06:01:15;;;;;;;1.65;1.02;;;24.70;90.20;;;;;;5090290;28;20926;-84
2023/07/02 06:03:44;;;;;;;1.05;0.90;;;24.80;90.00;;;;;;5098842;28;20635;-84
2023/07/02 06:06:13;;;;;;;4.18;1.80;;;24.90;90.00;;;;;;5097161;28;20221;-84
2023/07/02 06:08:41;;;;;;;2.15;0.85;;;24.90;89.90;;;;;;5096059;28;20193;-84
2023/07/02 06:11:12;;;;;;;1.23;1.10;;;25.00;89.80;;;;;;5102442;28;20190;-83
2023/07/02 06:13:40;;;;;;;0.95;0.80;;;25.10;89.50;;;;;;5099599;28;20189;-85
2023/07/02 06:16:09;;;;;;;0.77;0.77;;;25.10;89.50;;;;;;5092823;28;20721;-82
2023/07/02 06:18:37;;;;;;;3.67;1.73;;;25.20;88.80;;;;;;5096578;28;20280;-85
2023/07/02 06:21:06;;;;;;;0.75;0.73;;;25.30;88.30;;;;;;5099302;27;21139;-84
2023/07/02 06:23:42;;;;;;;1.60;1.25;;;25.30;87.60;;;;;;5105185;27;20870;-84
2023/07/02 06:26:12;;;;;;;1.50;0.93;;;25.40;87.20;;;;;;5106187;27;20193;-84
2023/07/02 06:28:40;;;;;;;1.23;0.65;;;25.50;86.90;;;;;;5101841;28;20194;-84
2023/07/02 06:31:09;;;;;;;1.17;0.60;;;25.50;87.40;;;;;;5108221;27;20190;-83
2023/07/02 06:33:40;;;;;;;1.00;0.93;;;25.60;87.20;;;;;;5106842;28;20193;-84
2023/07/02 06:36:08;;;;;;;1.55;1.33;;;25.60;86.90;;;;;;5098346;28;20665;-84
2023/07/02 06:38:42;;;;;;;1.20;1.08;;;25.70;86.70;;;;;;5094834;27;20216;-84
2023/07/02 06:41:12;;;;;;;0.70;0.70;;;25.80;86.40;;;;;;5109139;27;20184;-84
2023/07/02 06:43:42;;;;;;;4.13;1.40;;;25.80;86.30;;;;;;5100677;28;20197;-84
2023/07/02 06:46:11;;;;;;;0.63;0.55;;;25.90;85.30;;;;;;5093870;27;20269;-84
2023/07/02 06:48:40;;;;;;;1.25;0.93;;;26.00;85.30;;;;;;5102485;28;20209;-85
2023/07/02 06:51:09;;;;;;;1.67;0.60;;;26.10;85.10;;;;;;5098749;27;20202;-82
2023/07/02 06:53:37;;;;;;;1.58;1.48;;;26.10;85.00;;;;;;5107595;27;20791;-83
2023/07/02 06:56:06;;;;;;;1.65;1.17;;;26.20;84.80;;;;;;5097527;27;20207;-86
2023/07/02 06:58:35;;;;;;;2.92;1.58;;;26.30;84.60;;;;;;5103524;27;20193;-85
2023/07/02 07:01:04;;;;;;;0.85;0.70;;;26.30;84.20;;;;;;5101345;27;20212;-85
2023/07/02 07:03:32;;;;;;;1.73;1.55;;;26.30;84.20;;;;;;5097255;27;20193;-85
2023/07/02 07:06:01;;;;;;;1.73;1.38;;;26.40;84.00;;;;;;5108101;28;20911;-85
2023/07/02 07:08:29;;;;;;;0.98;0.85;;;26.50;83.90;;;;;;5101045;27;20251;-85
2023/07/02 07:10:57;;;;;;;1.25;1.15;;;26.50;83.40;;;;;;5101624;27;20292;-86
2023/07/02 07:13:26;;;;;;;1.30;1.20;;;26.50;83.30;;;;;;5098004;27;20559;-86
2023/07/02 07:15:55;;;;;;;2.08;1.17;;;26.50;83.60;;;;;;5095596;28;20186;-85
2023/07/02 07:18:24;;;;;;;0.57;0.57;;;26.70;83.50;;;;;;5102153;28;20590;-85
2023/07/02 07:20:53;;;;;;;1.92;1.83;;;26.70;83.20;;;;;;5100170;27;20708;-84
2023/07/02 07:23:21;;;;;;;2.47;1.70;;;26.80;83.40;;;;;;5100382;27;20202;-85
2023/07/02 07:25:50;;;;;;;1.10;1.05;;;26.90;82.90;;;;;;5111855;27;20193;-85
2023/07/02 07:28:19;;;;;;;1.90;1.73;;;26.90;82.40;;;;;;5105677;27;20202;-86
2023/07/02 07:30:47;;;;;;;0.85;0.60;;;27.00;82.50;;;;;;5105770;27;20200;-86
2023/07/02 07:33:18;;;;;;;3.65;1.55;;;27.10;82.40;;;;;;5108407;27;20657;-84
2023/07/02 07:35:46;;;;;;;1.55;1.35;;;27.20;82.50;;;;;;5097603;27;20194;-86
2023/07/02 07:38:15;;;;;;;2.85;1.13;;;27.30;81.20;;;;;;5104110;27;20197;-84
2023/07/02 07:40:44;;;;;;;0.75;0.73;;;27.30;80.60;;;;;;5105169;27;20220;-84
2023/07/02 07:43:13;;;;;;;0.80;0.60;;;27.30;79.60;;;;;;5104716;27;20622;-85
2023/07/02 07:45:41;;;;;;;1.60;0.40;;;27.30;78.60;;;;;;5110637;27;20204;-82
2023/07/02 07:48:10;;;;;;;1.40;1.30;;;27.40;77.90;;;;;;5101968;27;20217;-83
2023/07/02 07:50:40;;;;;;;1.42;0.85;;;27.40;77.20;;;;;;5095289;28;20196;-83
2023/07/02 07:53:08;;;;;;;0.75;0.73;;;27.50;77.80;;;;;;5109107;27;20192;-83
2023/07/02 07:55:37;;;;;;;0.95;0.82;;;27.60;77.90;;;;;;5105691;27;20193;-84
2023/07/02 07:58:05;;;;;;;0.57;0.50;;;27.70;77.40;;;;;;5103770;28;20208;-86
2023/07/02 08:00:33;;;;;;;0.43;0.40;;;27.70;77.00;;;;;;5112238;27;20602;-84
2023/07/02 08:03:03;;;;;;;0.65;0.65;;;27.80;76.40;;;;;;5104540;27;20205;-85
2023/07/02 08:05:32;;;;;;;1.20;1.05;;;27.80;76.20;;;;;;5092104;27;20200;-84
2023/07/02 08:08:02;;;;;;;2.13;1.65;;;27.90;76.40;;;;;;5103491;28;20217;-85
2023/07/02 08:10:30;;;;;;;0.65;0.60;;;27.90;75.50;;;;;;5096729;28;20213;-84
2023/07/02 08:12:58;;;;;;;0.68;0.52;;;28.00;75.10;;;;;;5100994;28;20201;-81
2023/07/02 08:15:27;;;;;;;1.73;1.00;;;28.00;74.30;;;;;;5101380;27;20194;-82
2023/07/02 08:17:58;;;;;;;0.50;0.40;;;28.10;73.80;;;;;;5092630;27;20273;-83
2023/07/02 08:20:26;;;;;;;1.13;1.02;;;28.10;73.40;;;;;;5097960;28;20238;-84
2023/07/02 08:22:54;;;;;;;0.70;0.70;;;28.20;72.80;;;;;;5095266;28;20654;-82
2023/07/02 08:25:26;;;;;;;0.50;0.50;;;28.20;72.20;;;;;;5101465;28;20196;-79
2023/07/02 08:27:55;;;;;;;0.40;0.40;;;28.30;72.50;;;;;;5093964;28;20189;-83
2023/07/02 08:30:23;;;;;;;1.52;1.42;;;28.30;72.40;;;;;;5103264;28;20197;-83
2023/07/02 08:32:55;;;;;;;0.98;0.60;;;28.30;71.00;;;;;;5096193;28;20182;-81
2023/07/02 08:35:24;;;;;;;2.65;0.82;;;28.30;71.30;;;;;;5092530;28;20639;-82
2023/07/02 08:37:52;;;;;;;0.63;0.63;;;28.40;71.40;;;;;;5100304;28;20242;-81
2023/07/02 08:40:21;;;;;;;0.60;0.60;;;28.50;71.60;;;;;;5091252;28;20225;-82
2023/07/02 08:42:51;;;;;;;0.52;0.52;;;28.60;72.20;;;;;;5099581;27;20189;-83
2023/07/02 08:45:21;;;;;;;0.40;0.30;;;28.60;72.30;;;;;;5103607;27;20224;-84
2023/07/02 08:47:50;;;;;;;0.70;0.55;;;28.70;71.50;;;;;;5099147;27;20190;-82
2023/07/02 08:50:19;;;;;;;1.77;1.40;;;28.70;70.40;;;;;;5092680;28;20233;-81
2023/07/02 08:52:47;;;;;;;0.40;0.40;;;28.80;70.30;;;;;;5095560;27;20735;-83
2023/07/02 08:55:16;;;;;;;1.58;0.93;;;28.80;70.40;;;;;;5091578;28;20193;-81
2023/07/02 08:57:53;;;;;;;1.20;0.80;;;28.80;69.10;;;;;;5093733;27;20193;-83
2023/07/02 09:00:22;;;;;;;0.70;0.68;;;28.80;67.70;;;;;;5101107;28;20217;-81
2023/07/02 09:02:50;;;;;;;1.75;0.50;;;28.90;68.70;;;;;;5094630;28;20282;-84
2023/07/02 09:05:19;;;;;;;0.73;0.73;;;29.00;68.70;;;;;;5090049;27;20193;-84
2023/07/02 09:07:48;;;;;;;1.38;0.80;;;29.00;68.30;;;;;;5096356;27;20226;-83
2023/07/02 09:10:28;;;;;;;0.25;0.25;;;29.10;68.20;;;;;;5093582;28;20606;-83
2023/07/02 09:13:09;;;;;;;0.50;0.50;;;29.20;68.20;;;;;;5091779;27;21043;-83
2023/07/02 09:15:38;;;;;;;0.40;0.40;;;29.20;66.90;;;;;;5089586;28;20193;-84
2023/07/02 09:18:21;;;;;;;0.40;0.40;;;29.20;65.50;;;;;;5093366;27;20911;-83
2023/07/02 09:20:51;;;;;;;1.17;0.93;;;29.30;65.90;;;;;;5101242;27;20564;-82
2023/07/02 09:23:20;;;;;;;0.43;0.43;;;29.30;65.50;;;;;;5101010;27;20195;-85
2023/07/02 09:25:48;;;;;;;0.32;0.30;;;29.40;65.50;;;;;;5093185;28;20197;-82
2023/07/02 09:28:20;;;;;;;3.88;1.30;;;29.40;65.30;;;;;;5099618;28;20215;-84
2023/07/02 09:30:56;;;;;;;1.90;0.70;;;29.40;65.40;;;;;;5094534;28;20343;-84
2023/07/02 09:33:25;;;;;;;0.60;0.60;;;29.60;65.90;;;;;;5089234;28;20209;-84
2023/07/02 09:35:55;;;;;;;0.30;0.30;;;29.60;65.50;;;;;;5102530;28;20185;-83
2023/07/02 09:38:23;;;;;;;1.05;0.60;;;29.70;64.80;;;;;;5094175;28;20229;-85
2023/07/02 09:40:53;;;;;;;1.27;1.15;;;29.70;64.30;;;;;;5095352;28;20694;-84
2023/07/02 09:43:25;;;;;;;1.55;1.45;;;29.80;64.80;;;;;;5104221;28;20575;-83
2023/07/02 09:45:57;;;;;;;0.57;0.57;;;29.80;64.40;;;;;;5100549;28;20201;-84
2023/07/02 09:48:26;;;;;;;1.23;0.80;;;29.90;64.30;;;;;;5088824;28;20245;-83
2023/07/02 09:50:56;;;;;;;0.82;0.63;;;29.90;63.10;;;;;;5095301;28;20295;-84
2023/07/02 09:53:24;;;;;;;0.63;0.50;;;29.90;63.10;;;;;;5105867;28;20213;-83
2023/07/02 09:55:53;;;;;;;0.65;0.60;;;29.90;63.30;;;;;;5090335;28;20288;-84
2023/07/02 09:58:23;;;;;;;1.00;0.57;;;30.00;62.90;;;;;;5104226;27;20200;-82
2023/07/02 10:00:51;;;;;;;0.50;0.50;;;30.00;62.60;;;;;;5100643;27;20224;-84
2023/07/02 10:03:30;;;;;;;4.65;0.80;;;30.00;62.40;;;;;;5099242;28;20216;-85
2023/07/02 10:06:05;;;;;;;0.98;0.77;;;30.00;61.90;;;;;;5093575;28;20194;-84
2023/07/02 10:08:34;;;;;;;1.25;0.57;;;30.10;62.10;;;;;;5090307;28;20236;-86
2023/07/02 10:11:10;;;;;;;0.57;0.43;;;30.10;62.50;;;;;;5111852;28;20204;-84
2023/07/02 10:13:41;;;;;;;0.82;0.52;;;30.10;62.80;;;;;;5092909;28;20197;-85
2023/07/02 10:16:09;;;;;;;0.80;0.52;;;30.10;62.30;;;;;;5089223;28;20228;-83
2023/07/02 10:18:38;;;;;;;2.20;1.10;;;30.20;62.10;;;;;;5109569;28;20589;-82
2023/07/02 10:21:16;;;;;;;1.52;0.95;;;30.10;61.90;;;;;;5101038;28;20568;-84
2023/07/02 10:23:45;;;;;;;0.75;0.68;;;30.10;65.20;;;;;;5099340;28;20188;-84
2023/07/02 10:26:17;;;;;;;0.65;0.65;;;30.00;68.80;;;;;;5090159;27;20200;-83
2023/07/02 10:28:58;;;;;;;1.10;1.00;;;29.90;70.00;;;;;;5106389;28;20188;-83
2023/07/02 10:31:27;;;;;;;2.17;0.75;;;29.80;71.90;;;;;;5094005;28;22345;-82
2023/07/02 10:33:56;;;;;;;1.48;0.88;;;29.80;72.50;;;;;;5101724;28;20184;-83
2023/07/02 10:36:26;;;;;;;0.63;0.63;;;29.70;73.00;;;;;;5091867;28;20200;-84
2023/07/02 10:38:54;;;;;;;0.60;0.60;;;29.60;73.80;;;;;;5109825;28;20189;-84
2023/07/02 10:41:26;;;;;;;0.85;0.68;;;29.70;73.50;;;;;;5101673;27;21164;-83
2023/07/02 10:43:56;;;;;;;1.15;1.05;;;29.80;73.40;;;;;;5116571;27;20220;-85
2023/07/02 10:46:26;;;;;;;8.88;1.60;;;29.90;73.10;;;;;;5102353;28;20197;-85
2023/07/02 10:48:55;;;;;;;0.95;0.90;;;30.10;73.00;;;;;;5104972;28;20575;-85
2023/07/02 10:51:23;;;;;;;1.25;0.90;;;30.10;71.90;;;;;;5102693;28;20197;-83
2023/07/02 10:53:59;;;;;;;1.15;0.55;;;30.10;71.60;;;;;;5101017;28;20193;-83
2023/07/02 10:56:28;;;;;;;0.70;0.63;;;30.10;70.90;;;;;;5104682;28;20287;-83
2023/07/02 10:58:57;;;;;;;1.27;0.47;;;30.10;70.60;;;;;;5120242;28;20303;-83
2023/07/02 11:01:28;;;;;;;0.85;0.82;;;30.10;69.00;;;;;;5103693;27;20274;-81
2023/07/02 11:04:00;;;;;;;1.05;0.90;;;30.10;68.90;;;;;;5101231;27;20189;-83
2023/07/02 11:06:29;;;;;;;0.52;0.52;;;30.00;68.10;;;;;;5115704;27;20285;-83
2023/07/02 11:08:57;;;;;;;0.93;0.73;;;30.00;67.90;;;;;;5107903;27;20213;-84
2023/07/02 11:11:26;;;;;;;0.63;0.63;;;30.00;69.10;;;;;;5092013;28;20215;-84
2023/07/02 11:13:54;;;;;;;2.53;1.08;;;29.90;70.00;;;;;;5105259;27;20638;-84
2023/07/02 11:16:28;;;;;;;6.78;0.70;;;29.90;70.20;;;;;;5098633;27;20201;-82
2023/07/02 11:19:08;;;;;;;5.18;0.85;;;29.90;70.80;;;;;;5096390;28;20211;-82
2023/07/02 11:21:38;;;;;;;0.60;0.50;;;29.90;70.60;;;;;;5097032;27;20226;-84
2023/07/02 11:24:08;;;;;;;2.05;1.67;;;29.90;70.70;;;;;;5106443;27;20190;-82
2023/07/02 11:26:37;;;;;;;1.73;1.33;;;29.90;71.00;;;;;;5094098;28;20181;-84
2023/07/02 11:29:09;;;;;;;1.05;0.88;;;29.90;70.20;;;;;;5105071;27;20560;-84
2023/07/02 11:31:39;;;;;;;0.65;0.60;;;29.90;70.10;;;;;;5102298;28;20608;-82
2023/07/02 11:34:13;;;;;;;2.17;1.15;;;29.90;69.60;;;;;;5100739;27;20203;-83
2023/07/02 11:36:41;;;;;;;0.90;0.75;;;30.00;69.00;;;;;;5098186;27;20189;-84
2023/07/02 11:39:10;;;;;;;1.85;0.93;;;30.10;68.80;;;;;;5102502;27;20559;-82
2023/07/02 11:41:39;;;;;;;1.00;0.93;;;30.20;68.20;;;;;;5105753;27;20262;-83
2023/07/02 11:44:07;;;;;;;1.65;1.42;;;30.20;66.40;;;;;;5105541;27;20184;-84
2023/07/02 11:46:36;;;;;;;3.05;0.90;;;30.20;66.70;;;;;;5102198;27;20190;-83
2023/07/02 11:49:08;;;;;;;1.13;0.85;;;30.20;66.10;;;;;;5102154;27;20239;-82
2023/07/02 11:51:37;;;;;;;2.22;0.80;;;30.20;65.50;;;;;;5105725;27;20366;-82
2023/07/02 11:54:05;;;;;;;0.85;0.75;;;30.30;65.50;;;;;;5103713;27;20609;-85
2023/07/02 11:56:34;;;;;;;1.17;0.98;;;30.20;64.80;;;;;;5105419;27;20201;-84
2023/07/02 11:59:02;;;;;;;1.02;0.93;;;30.30;64.20;;;;;;5100610;28;20190;-85
2023/07/02 12:01:32;;;;;;;1.65;0.73;;;30.20;63.00;;;;;;5098456;27;20564;-83
2023/07/02 12:04:01;;;;;;;2.05;0.93;;;30.20;62.80;;;;;;5099841;27;20188;-83
2023/07/02 12:06:30;;;;;;;1.35;1.00;;;30.20;63.00;;;;;;5095111;27;20253;-83
2023/07/02 12:08:59;;;;;;;1.00;0.93;;;30.30;63.30;;;;;;5094147;28;20666;-83
2023/07/02 12:11:27;;;;;;;1.38;0.90;;;30.30;62.70;;;;;;5095013;28;20205;-83
2023/07/02 12:13:55;;;;;;;2.30;1.00;;;30.30;62.50;;;;;;5100473;27;20253;-81
2023/07/02 12:16:24;;;;;;;1.08;1.05;;;30.40;62.50;;;;;;5097094;27;20190;-83
2023/07/02 12:18:52;;;;;;;0.55;0.40;;;30.50;62.20;;;;;;5100459;27;20194;-81
2023/07/02 12:21:20;;;;;;;1.30;0.90;;;30.50;60.90;;;;;;5110728;27;20193;-83
2023/07/02 12:23:50;;;;;;;1.90;0.70;;;30.50;60.20;;;;;;5102026;28;20213;-84
2023/07/02 12:26:18;;;;;;;0.52;0.52;;;30.60;59.90;;;;;;5108089;27;20190;-82
2023/07/02 12:28:46;;;;;;;0.70;0.70;;;30.60;59.40;;;;;;5106239;27;20630;-84
2023/07/02 12:31:15;;;;;;;1.92;1.23;;;30.60;58.80;;;;;;5102500;27;20197;-82
2023/07/02 12:33:43;;;;;;;0.80;0.50;;;30.70;59.20;;;;;;5097419;27;20284;-83
2023/07/02 12:36:12;;;;;;;0.95;0.43;;;30.70;58.80;;;;;;5098164;27;20189;-84
2023/07/02 12:38:40;;;;;;;1.17;0.75;;;30.70;59.10;;;;;;5097091;28;20197;-82
2023/07/02 12:41:10;;;;;;;0.68;0.68;;;30.70;58.80;;;;;;5110944;27;20188;-84
2023/07/02 12:43:38;;;;;;;0.60;0.60;;;30.70;59.00;;;;;;5103088;27;20222;-85
2023/07/02 12:46:07;;;;;;;0.73;0.60;;;30.70;59.70;;;;;;5102714;27;20197;-85
2023/07/02 12:48:36;;;;;;;1.20;1.10;;;30.60;60.20;;;;;;5107070;27;20235;-86
2023/07/02 12:51:04;;;;;;;3.38;1.52;;;30.60;60.80;;;;;;5116867;27;20194;-82
2023/07/02 12:53:32;;;;;;;4.55;0.57;;;30.50;61.20;;;;;;5101026;27;20186;-84
2023/07/02 12:56:01;;;;;;;1.20;0.77;;;30.50;61.60;;;;;;5097965;27;20584;-84
2023/07/02 12:58:30;;;;;;;0.90;0.65;;;30.40;61.30;;;;;;5102552;27;20204;-84